createdAt,value
2018-01-06T00:01:30.303Z,91.00
2018-01-06T00:03:58.567Z,91.10
2018-01-06T00:06:27.609Z,91.10
2018-01-06T00:08:55.879Z,91.10
2018-01-06T00:11:24.147Z,91.10
2018-01-06T00:13:52.402Z,91.20
2018-01-06T00:16:20.672Z,91.10
2018-01-06T00:18:49.738Z,91.30
2018-01-06T00:21:18.017Z,91.20
2018-01-06T00:23:46.327Z,91.20
2018-01-06T00:26:14.560Z,91.20
2018-01-06T00:28:42.994Z,91.20
2018-01-06T00:31:12.096Z,91.30
2018-01-06T00:33:41.109Z,91.40
2018-01-06T00:36:09.386Z,91.40
2018-01-06T00:38:37.933Z,91.40
2018-01-06T00:41:06.214Z,91.40
2018-01-06T00:43:35.243Z,91.50
2018-01-06T00:46:03.510Z,91.40
2018-01-06T00:48:31.763Z,91.30
2018-01-06T00:51:00.247Z,91.10
2018-01-06T00:53:28.536Z,90.80
2018-01-06T00:55:56.767Z,90.60
2018-01-06T00:58:25.004Z,90.60
2018-01-06T01:00:53.238Z,90.70
2018-01-06T01:03:21.510Z,90.50
2018-01-06T01:05:49.798Z,90.20
2018-01-06T01:08:18.026Z,90.10
2018-01-06T01:10:46.265Z,90.20
2018-01-06T01:13:14.522Z,90.20
2018-01-06T01:15:42.825Z,90.10
2018-01-06T01:18:11.056Z,90.20
2018-01-06T01:20:40.080Z,90.60
2018-01-06T01:23:08.317Z,90.60
2018-01-06T01:25:36.538Z,90.80
2018-01-06T01:28:05.032Z,90.90
2018-01-06T01:30:33.268Z,90.90
2018-01-06T01:33:01.527Z,90.90
2018-01-06T01:35:30.622Z,90.90
2018-01-06T01:37:59.767Z,90.90
2018-01-06T01:40:28.002Z,91.00
2018-01-06T01:42:57.134Z,91.00
2018-01-06T01:45:26.130Z,91.00
2018-01-06T01:47:54.389Z,91.00
2018-01-06T01:50:22.707Z,91.30
2018-01-06T01:52:50.973Z,91.00
2018-01-06T01:55:19.260Z,91.00
2018-01-06T01:57:47.588Z,91.00
2018-01-06T02:00:16.580Z,91.00
2018-01-06T02:02:44.856Z,91.00
2018-01-06T02:05:13.150Z,91.00
2018-01-06T02:07:41.433Z,91.00
2018-01-06T02:10:10.421Z,91.00
2018-01-06T02:12:38.675Z,91.00
2018-01-06T02:15:07.668Z,91.10
2018-01-06T02:17:35.945Z,91.40
2018-01-06T02:20:04.257Z,91.10
2018-01-06T02:22:32.633Z,91.10
2018-01-06T02:25:00.881Z,91.10
2018-01-06T02:27:29.154Z,91.10
2018-01-06T02:29:57.528Z,90.70
2018-01-06T02:32:25.773Z,90.60
2018-01-06T02:34:54.120Z,90.50
2018-01-06T02:37:22.372Z,90.50
2018-01-06T02:39:50.611Z,90.70
2018-01-06T02:42:18.915Z,90.90
2018-01-06T02:44:47.147Z,90.80
2018-01-06T02:47:15.391Z,90.80
2018-01-06T02:49:43.686Z,90.80
2018-01-06T02:52:11.946Z,90.80
2018-01-06T02:54:40.223Z,90.90
2018-01-06T02:57:08.505Z,90.80
2018-01-06T02:59:36.735Z,90.80
2018-01-06T03:02:05.939Z,90.80
2018-01-06T03:04:35.153Z,90.60
2018-01-06T03:07:03.486Z,90.60
2018-01-06T03:09:32.513Z,90.60
2018-01-06T03:12:01.572Z,90.60
2018-01-06T03:14:29.815Z,90.60
2018-01-06T03:16:58.136Z,90.80
2018-01-06T03:19:26.422Z,90.70
2018-01-06T03:21:55.422Z,90.90
2018-01-06T03:24:23.679Z,90.70
2018-01-06T03:26:51.934Z,90.90
2018-01-06T03:29:20.174Z,91.00
2018-01-06T03:31:48.417Z,91.00
2018-01-06T03:34:16.667Z,91.00
2018-01-06T03:36:44.892Z,91.10
2018-01-06T03:39:13.887Z,91.10
2018-01-06T03:41:42.154Z,91.10
2018-01-06T03:44:10.399Z,91.10
2018-01-06T03:46:39.511Z,91.10
2018-01-06T03:49:08.848Z,91.40
2018-01-06T03:51:37.806Z,91.40
2018-01-06T03:54:06.940Z,91.40
2018-01-06T03:56:35.218Z,91.40
2018-01-06T03:59:03.466Z,91.40
2018-01-06T04:01:31.718Z,91.40
2018-01-06T04:04:00.013Z,91.40
2018-01-06T04:06:29.032Z,91.50
2018-01-06T04:08:57.272Z,91.50
2018-01-06T04:11:25.543Z,91.50
2018-01-06T04:13:53.784Z,91.50
2018-01-06T04:16:22.127Z,91.60
2018-01-06T04:18:50.454Z,91.40
2018-01-06T04:21:18.682Z,91.40
2018-01-06T04:23:46.932Z,91.50
2018-01-06T04:26:15.975Z,91.40
2018-01-06T04:28:45.224Z,91.40
2018-01-06T04:31:14.210Z,91.40
2018-01-06T04:33:42.511Z,91.40
2018-01-06T04:36:11.578Z,91.50
2018-01-06T04:38:39.826Z,91.80
2018-01-06T04:41:08.094Z,91.40
2018-01-06T04:43:36.358Z,91.40
2018-01-06T04:46:04.647Z,91.20
2018-01-06T04:48:32.905Z,91.10
2018-01-06T04:51:01.168Z,91.30
2018-01-06T04:53:30.140Z,91.30
2018-01-06T04:55:59.188Z,91.40
2018-01-06T04:58:27.398Z,91.40
2018-01-06T05:00:55.718Z,91.60
2018-01-06T05:03:24.012Z,91.50
2018-01-06T05:05:53.022Z,91.60
2018-01-06T05:08:21.270Z,91.60
2018-01-06T05:10:49.550Z,91.90
2018-01-06T05:13:18.514Z,91.70
2018-01-06T05:15:47.526Z,91.80
2018-01-06T05:18:15.828Z,91.80
2018-01-06T05:20:44.093Z,91.70
2018-01-06T05:23:12.355Z,92.00
2018-01-06T05:25:41.498Z,92.10
2018-01-06T05:28:09.803Z,92.10
2018-01-06T05:30:38.843Z,91.80
2018-01-06T05:33:07.105Z,91.80
2018-01-06T05:35:35.395Z,91.90
2018-01-06T05:38:03.640Z,91.90
2018-01-06T05:40:32.648Z,91.80
2018-01-06T05:43:00.890Z,91.80
2018-01-06T05:45:29.943Z,91.30
2018-01-06T05:47:58.268Z,91.40
2018-01-06T05:50:26.487Z,91.40
2018-01-06T05:52:54.741Z,91.50
2018-01-06T05:55:23.749Z,92.00
2018-01-06T05:57:52.851Z,92.00
2018-01-06T06:00:21.971Z,91.90
2018-01-06T06:02:50.232Z,91.80
2018-01-06T06:05:18.474Z,91.70
2018-01-06T06:07:46.740Z,91.80
2018-01-06T06:10:15.816Z,91.80
2018-01-06T06:12:44.050Z,91.70
2018-01-06T06:15:12.346Z,91.90
2018-01-06T06:17:40.586Z,92.00
2018-01-06T06:20:08.835Z,91.90
2018-01-06T06:22:37.075Z,92.00
2018-01-06T06:25:05.328Z,92.00
2018-01-06T06:27:33.582Z,92.10
2018-01-06T06:30:01.836Z,92.10
2018-01-06T06:32:30.092Z,92.00
2018-01-06T06:34:58.330Z,92.00
2018-01-06T06:37:26.680Z,91.90
2018-01-06T06:39:55.695Z,92.00
2018-01-06T06:42:23.974Z,92.00
2018-01-06T06:44:52.236Z,92.10
2018-01-06T06:47:22.454Z,92.00
2018-01-06T06:49:51.487Z,92.30
2018-01-06T06:52:19.747Z,92.20
2018-01-06T06:54:48.023Z,92.10
2018-01-06T06:57:16.618Z,92.20
2018-01-06T06:59:44.910Z,92.20
2018-01-06T07:02:13.136Z,92.20
2018-01-06T07:04:42.287Z,92.30
2018-01-06T07:07:10.739Z,92.30
2018-01-06T07:09:39.037Z,92.30
2018-01-06T07:12:07.270Z,92.30
2018-01-06T07:14:35.634Z,92.30
2018-01-06T07:17:03.895Z,92.30
2018-01-06T07:19:32.208Z,92.30
2018-01-06T07:22:01.191Z,92.10
2018-01-06T07:24:29.460Z,92.10
2018-01-06T07:26:58.456Z,92.10
2018-01-06T07:29:27.513Z,92.00
2018-01-06T07:31:55.822Z,91.60
2018-01-06T07:34:24.167Z,91.70
2018-01-06T07:36:52.477Z,91.90
2018-01-06T07:39:20.723Z,92.00
2018-01-06T07:41:48.946Z,92.10
2018-01-06T07:44:17.195Z,92.20
2018-01-06T07:46:45.457Z,92.10
2018-01-06T07:49:13.714Z,92.10
2018-01-06T07:51:41.990Z,92.10
2018-01-06T07:54:10.544Z,92.00
2018-01-06T07:56:39.571Z,91.60
2018-01-06T07:59:07.858Z,91.60
2018-01-06T08:01:36.170Z,91.70
2018-01-06T08:04:05.166Z,91.70
2018-01-06T08:06:34.175Z,91.50
2018-01-06T08:09:03.207Z,91.40
2018-01-06T08:11:31.469Z,91.40
2018-01-06T08:13:59.848Z,90.90
2018-01-06T08:16:28.078Z,90.80
2018-01-06T08:18:56.316Z,90.70
2018-01-06T08:21:24.534Z,90.60
2018-01-06T08:23:53.564Z,90.30
2018-01-06T08:26:21.798Z,90.30
2018-01-06T08:28:50.056Z,90.30
2018-01-06T08:31:18.314Z,90.20
2018-01-06T08:33:46.563Z,90.10
2018-01-06T08:36:15.568Z,90.00
2018-01-06T08:38:44.009Z,90.00
2018-01-06T08:41:13.090Z,89.30
2018-01-06T08:43:41.331Z,89.30
2018-01-06T08:46:09.627Z,88.10
2018-01-06T08:48:37.906Z,88.30
2018-01-06T08:51:06.260Z,86.50
2018-01-06T08:53:34.516Z,85.90
2018-01-06T08:56:03.522Z,87.10
2018-01-06T08:58:31.772Z,87.10
2018-01-06T09:01:00.797Z,85.90
2018-01-06T09:03:29.038Z,85.80
2018-01-06T09:05:57.286Z,86.90
2018-01-06T09:08:25.542Z,86.60
2018-01-06T09:10:53.763Z,87.20
2018-01-06T09:13:22.806Z,87.00
2018-01-06T09:15:51.066Z,87.00
2018-01-06T09:18:19.544Z,86.30
2018-01-06T09:20:47.771Z,85.70
2018-01-06T09:23:16.094Z,86.60
2018-01-06T09:25:44.333Z,87.90
2018-01-06T09:28:13.358Z,84.60
2018-01-06T09:30:41.634Z,84.60
2018-01-06T09:33:09.886Z,85.50
2018-01-06T09:35:38.964Z,86.60
2018-01-06T09:38:07.217Z,86.50
2018-01-06T09:40:35.438Z,86.60
2018-01-06T09:43:03.679Z,87.00
2018-01-06T09:45:31.973Z,86.60
2018-01-06T09:48:00.286Z,86.80
2018-01-06T09:50:28.508Z,85.40
2018-01-06T09:52:59.210Z,84.70
2018-01-06T09:55:27.518Z,83.20
2018-01-06T09:57:55.771Z,82.80
2018-01-06T10:00:24.026Z,83.70
2018-01-06T10:02:52.289Z,82.50
2018-01-06T10:05:21.334Z,83.50
2018-01-06T10:07:49.596Z,83.50
2018-01-06T10:10:17.839Z,84.30
2018-01-06T10:12:46.855Z,84.70
2018-01-06T10:15:15.130Z,84.70
2018-01-06T10:17:43.381Z,84.50
2018-01-06T10:20:12.386Z,84.60
2018-01-06T10:22:40.636Z,84.50
2018-01-06T10:25:09.658Z,84.30
2018-01-06T10:27:37.920Z,84.30
2018-01-06T10:30:06.226Z,85.00
2018-01-06T10:32:35.235Z,85.00
2018-01-06T10:35:03.481Z,85.00
2018-01-06T10:37:31.718Z,85.20
2018-01-06T10:39:59.958Z,84.60
2018-01-06T10:42:28.194Z,85.80
2018-01-06T10:44:56.457Z,85.10
2018-01-06T10:47:25.442Z,84.70
2018-01-06T10:49:54.442Z,84.10
2018-01-06T10:52:23.467Z,83.60
2018-01-06T10:54:51.706Z,83.60
2018-01-06T10:57:20.748Z,83.60
2018-01-06T10:59:49.010Z,83.70
2018-01-06T11:02:17.294Z,84.00
2018-01-06T11:04:45.522Z,84.90
2018-01-06T11:07:14.644Z,85.40
2018-01-06T11:09:42.891Z,85.30
2018-01-06T11:12:11.223Z,85.20
2018-01-06T11:14:39.494Z,83.90
2018-01-06T11:17:07.722Z,83.50
2018-01-06T11:19:35.946Z,84.50
2018-01-06T11:22:04.210Z,85.40
2018-01-06T11:24:32.595Z,85.40
2018-01-06T11:27:00.835Z,85.90
2018-01-06T11:29:29.855Z,83.90
2018-01-06T11:31:58.102Z,83.90
2018-01-06T11:34:27.098Z,85.10
2018-01-06T11:36:56.157Z,84.90
2018-01-06T11:39:24.394Z,84.90
2018-01-06T11:41:52.630Z,84.70
2018-01-06T11:44:20.887Z,85.00
2018-01-06T11:46:49.131Z,84.90
2018-01-06T11:49:17.426Z,85.60
2018-01-06T11:51:45.695Z,86.10
2018-01-06T11:54:13.947Z,85.40
2018-01-06T11:56:42.970Z,84.70
2018-01-06T11:59:11.222Z,84.80
2018-01-06T12:01:39.502Z,85.50
2018-01-06T12:04:07.768Z,86.20
2018-01-06T12:06:36.236Z,87.40
2018-01-06T12:09:05.276Z,87.90
2018-01-06T12:11:33.511Z,87.90
2018-01-06T12:14:01.800Z,87.80
2018-01-06T12:16:30.026Z,87.60
2018-01-06T12:18:58.298Z,87.70
2018-01-06T12:21:26.640Z,87.20
2018-01-06T12:23:54.910Z,85.50
2018-01-06T12:26:23.191Z,85.90
2018-01-06T12:28:51.496Z,87.30
2018-01-06T12:31:19.726Z,87.80
2018-01-06T12:33:47.958Z,88.20
2018-01-06T12:36:16.271Z,87.90
2018-01-06T12:38:45.277Z,87.20
2018-01-06T12:41:13.511Z,87.20
2018-01-06T12:43:41.819Z,86.70
2018-01-06T12:46:10.067Z,86.80
2018-01-06T12:48:38.363Z,87.40
2018-01-06T12:51:07.405Z,85.70
2018-01-06T12:53:36.406Z,84.30
2018-01-06T12:56:04.656Z,84.30
2018-01-06T12:58:33.006Z,83.50
2018-01-06T13:01:02.020Z,85.10
2018-01-06T13:03:30.316Z,85.10
2018-01-06T13:05:58.598Z,84.90
2018-01-06T13:08:26.855Z,84.60
2018-01-06T13:10:55.086Z,83.80
2018-01-06T13:13:23.383Z,84.40
2018-01-06T13:15:52.473Z,84.60
2018-01-06T13:18:21.480Z,84.70
2018-01-06T13:20:50.607Z,84.20
2018-01-06T13:23:18.868Z,84.10
2018-01-06T13:25:47.113Z,84.00
2018-01-06T13:28:15.374Z,84.10
2018-01-06T13:30:43.602Z,84.00
2018-01-06T13:33:12.626Z,83.70
2018-01-06T13:35:40.893Z,83.70
2018-01-06T13:38:09.163Z,83.20
2018-01-06T13:40:37.434Z,83.40
2018-01-06T13:43:06.464Z,84.60
2018-01-06T13:45:34.713Z,84.60
2018-01-06T13:48:02.961Z,84.90
2018-01-06T13:50:31.211Z,85.60
2018-01-06T13:53:00.223Z,85.90
2018-01-06T13:55:28.446Z,85.80
2018-01-06T13:57:56.743Z,86.00
2018-01-06T14:00:25.062Z,86.70
2018-01-06T14:02:53.413Z,86.60
2018-01-06T14:05:21.646Z,87.30
2018-01-06T14:07:49.874Z,87.20
2018-01-06T14:10:18.219Z,86.60
2018-01-06T14:12:46.473Z,87.20
2018-01-06T14:15:14.702Z,86.90
2018-01-06T14:17:43.743Z,87.10
2018-01-06T14:20:11.994Z,87.10
2018-01-06T14:22:40.279Z,87.30
2018-01-06T14:25:08.535Z,86.70
2018-01-06T14:27:37.587Z,86.70
2018-01-06T14:30:05.869Z,86.70
2018-01-06T14:32:34.193Z,86.50
2018-01-06T14:35:02.525Z,86.50
2018-01-06T14:37:34.506Z,86.30
2018-01-06T14:39:59.034Z,86.10
2018-01-06T14:42:27.300Z,85.70
2018-01-06T14:44:55.527Z,87.10
2018-01-06T14:47:24.602Z,87.20
2018-01-06T14:49:52.866Z,87.10
2018-01-06T14:52:21.090Z,87.40
2018-01-06T14:54:50.086Z,87.80
2018-01-06T14:57:19.248Z,88.00
2018-01-06T14:59:47.426Z,88.00
2018-01-06T15:02:17.058Z,87.40
2018-01-06T15:04:45.298Z,87.70
2018-01-06T15:07:13.577Z,87.90
2018-01-06T15:09:41.814Z,87.90
2018-01-06T15:12:10.082Z,88.10
2018-01-06T15:14:38.366Z,88.20
2018-01-06T15:17:06.591Z,88.60
2018-01-06T15:19:34.844Z,88.10
2018-01-06T15:22:03.089Z,88.20
2018-01-06T15:24:32.185Z,88.60
2018-01-06T15:27:01.281Z,88.50
2018-01-06T15:29:30.290Z,88.80
2018-01-06T15:31:58.575Z,88.80
2018-01-06T15:34:26.842Z,89.20
2018-01-06T15:36:55.110Z,89.00
2018-01-06T15:39:23.408Z,89.30
2018-01-06T15:41:51.674Z,89.30
2018-01-06T15:44:19.912Z,89.30
2018-01-06T15:46:48.155Z,89.70
2018-01-06T15:49:16.404Z,89.90
2018-01-06T15:51:44.663Z,90.00
2018-01-06T15:54:12.894Z,90.00
2018-01-06T15:56:41.147Z,90.10
2018-01-06T15:59:09.382Z,90.00
2018-01-06T16:01:38.061Z,89.80
2018-01-06T16:04:07.206Z,90.20
2018-01-06T16:06:35.430Z,90.20
2018-01-06T16:09:04.452Z,90.70
2018-01-06T16:11:32.709Z,90.40
2018-01-06T16:14:00.955Z,90.40
2018-01-06T16:16:29.178Z,90.50
2018-01-06T16:18:57.539Z,90.60
2018-01-06T16:21:25.842Z,90.60
2018-01-06T16:23:54.087Z,90.70
2018-01-06T16:26:23.098Z,90.60
2018-01-06T16:28:52.207Z,90.70
2018-01-06T16:31:21.328Z,90.70
2018-01-06T16:33:49.579Z,90.60
2018-01-06T16:36:17.811Z,90.70
2018-01-06T16:38:46.829Z,90.70
2018-01-06T16:41:15.090Z,90.70
2018-01-06T16:43:43.457Z,90.90
2018-01-06T16:46:11.674Z,90.90
2018-01-06T16:48:39.940Z,91.00
2018-01-06T16:51:08.235Z,91.40
2018-01-06T16:53:36.474Z,91.40
2018-01-06T16:56:04.750Z,91.30
2018-01-06T16:58:33.176Z,91.20
2018-01-06T17:01:01.410Z,91.40
2018-01-06T17:03:29.670Z,91.30
2018-01-06T17:05:59.175Z,91.50
2018-01-06T17:08:27.474Z,91.70
2018-01-06T17:10:55.746Z,91.60
2018-01-06T17:13:24.006Z,91.70
2018-01-06T17:15:52.234Z,91.90
2018-01-06T17:18:20.495Z,91.80
2018-01-06T17:20:49.682Z,91.80
2018-01-06T17:23:17.971Z,91.80
2018-01-06T17:25:46.223Z,91.80
2018-01-06T17:28:15.249Z,91.90
2018-01-06T17:30:43.515Z,91.90
2018-01-06T17:33:11.797Z,91.90
2018-01-06T17:35:40.030Z,92.00
2018-01-06T17:38:08.280Z,91.90
2018-01-06T17:40:36.523Z,92.10
2018-01-06T17:43:04.854Z,92.00
2018-01-06T17:45:33.123Z,92.00
2018-01-06T17:48:01.376Z,92.10
2018-01-06T17:50:29.613Z,92.10
2018-01-06T17:52:57.931Z,92.20
2018-01-06T17:55:26.204Z,92.20
2018-01-06T17:57:54.466Z,92.10
2018-01-06T18:00:22.699Z,92.10
2018-01-06T18:02:51.726Z,92.10
2018-01-06T18:05:19.976Z,92.10
2018-01-06T18:07:48.996Z,92.00
2018-01-06T18:10:17.264Z,91.90
2018-01-06T18:12:45.536Z,91.90
2018-01-06T18:15:13.912Z,91.90
2018-01-06T18:17:42.236Z,91.80
2018-01-06T18:20:10.499Z,91.80
2018-01-06T18:22:38.743Z,91.80
2018-01-06T18:25:06.986Z,91.80
2018-01-06T18:27:36.034Z,91.90
2018-01-06T18:30:04.290Z,91.80
2018-01-06T18:32:32.559Z,91.80
2018-01-06T18:35:01.049Z,91.70
2018-01-06T18:37:29.299Z,91.80
2018-01-06T18:39:58.307Z,91.90
2018-01-06T18:42:27.356Z,91.90
2018-01-06T18:44:55.641Z,91.90
2018-01-06T18:47:23.943Z,92.00
2018-01-06T18:49:53.036Z,91.70
2018-01-06T18:52:21.467Z,91.60
2018-01-06T18:54:49.785Z,91.70
2018-01-06T18:57:18.098Z,91.50
2018-01-06T18:59:46.382Z,91.80
2018-01-06T19:02:14.801Z,91.30
2018-01-06T19:04:43.096Z,91.30
2018-01-06T19:07:11.383Z,91.40
2018-01-06T19:09:39.728Z,91.50
2018-01-06T19:12:07.962Z,91.50
2018-01-06T19:14:36.301Z,91.40
2018-01-06T19:17:04.568Z,91.60
2018-01-06T19:19:32.920Z,91.60
2018-01-06T19:22:01.152Z,91.90
2018-01-06T19:24:29.451Z,91.70
2018-01-06T19:26:58.514Z,91.80
2018-01-06T19:29:28.472Z,91.90
2018-01-06T19:31:56.991Z,91.90
2018-01-06T19:34:26.754Z,92.20
2018-01-06T19:36:55.073Z,92.10
2018-01-06T19:39:23.567Z,92.20
2018-01-06T19:41:52.604Z,92.40
2018-01-06T19:44:21.883Z,92.30
2018-01-06T19:46:50.196Z,92.30
2018-01-06T19:49:19.326Z,92.40
2018-01-06T19:51:47.561Z,92.30
2018-01-06T19:54:16.691Z,92.40
2018-01-06T19:56:45.021Z,92.40
2018-01-06T19:59:14.129Z,92.40
2018-01-06T20:01:45.587Z,92.50
2018-01-06T20:04:13.823Z,92.50
2018-01-06T20:06:42.130Z,92.60
2018-01-06T20:09:11.399Z,92.40
2018-01-06T20:11:39.719Z,92.30
2018-01-06T20:14:08.538Z,92.60
2018-01-06T20:16:37.687Z,92.80
2018-01-06T20:19:05.987Z,93.10
2018-01-06T20:21:34.286Z,93.30
2018-01-06T20:24:02.756Z,93.40
2018-01-06T20:26:31.066Z,93.50
2018-01-06T20:28:59.358Z,93.60
2018-01-06T20:31:27.760Z,93.70
2018-01-06T20:33:56.011Z,93.60
2018-01-06T20:36:24.282Z,93.50
2018-01-06T20:38:53.792Z,93.60
2018-01-06T20:41:22.237Z,93.60
2018-01-06T20:43:50.474Z,93.60
2018-01-06T20:46:18.736Z,93.60
2018-01-06T20:48:47.863Z,93.60
2018-01-06T20:51:16.890Z,93.60
2018-01-06T20:53:45.356Z,93.70
2018-01-06T20:56:14.276Z,93.60
2018-01-06T20:58:43.202Z,93.70
2018-01-06T21:01:12.476Z,93.70
2018-01-06T21:03:40.733Z,93.70
2018-01-06T21:06:09.006Z,93.70
2018-01-06T21:08:37.445Z,93.60
2018-01-06T21:11:05.892Z,93.60
2018-01-06T21:13:34.530Z,93.60
2018-01-06T21:16:03.492Z,93.60
2018-01-06T21:18:32.695Z,93.60
2018-01-06T21:21:01.122Z,93.60
2018-01-06T21:23:29.450Z,93.60
2018-01-06T21:25:57.882Z,93.60
2018-01-06T21:28:26.176Z,93.40
2018-01-06T21:30:54.440Z,93.60
2018-01-06T21:33:23.605Z,93.50
2018-01-06T21:35:52.764Z,93.50
2018-01-06T21:38:21.206Z,93.50
2018-01-06T21:40:49.498Z,93.60
2018-01-06T21:43:17.742Z,93.60
2018-01-06T21:45:46.748Z,93.80
2018-01-06T21:48:15.932Z,93.90
2018-01-06T21:50:45.003Z,94.10
2018-01-06T21:53:13.258Z,94.10
2018-01-06T21:55:42.346Z,93.80
2018-01-06T21:58:10.942Z,93.80
2018-01-06T22:00:40.372Z,93.80
2018-01-06T22:03:09.339Z,93.80
2018-01-06T22:05:37.781Z,93.70
2018-01-06T22:08:06.195Z,93.80
2018-01-06T22:10:34.558Z,93.70
2018-01-06T22:13:02.802Z,93.50
2018-01-06T22:15:32.630Z,93.40
2018-01-06T22:18:00.865Z,93.40
2018-01-06T22:20:29.412Z,93.50
2018-01-06T22:22:57.856Z,93.50
2018-01-06T22:25:26.894Z,93.50
2018-01-06T22:27:55.154Z,93.50
2018-01-06T22:30:23.516Z,93.30
2018-01-06T22:32:52.569Z,93.10
2018-01-06T22:35:21.110Z,93.10
2018-01-06T22:37:49.395Z,92.80
2018-01-06T22:40:17.622Z,92.70
2018-01-06T22:42:45.947Z,92.80
2018-01-06T22:45:14.285Z,93.20
2018-01-06T22:47:43.310Z,93.10
2018-01-06T22:50:11.546Z,93.10
2018-01-06T22:52:39.839Z,93.10
2018-01-06T22:55:08.881Z,92.80
2018-01-06T22:57:37.260Z,92.80
2018-01-06T23:00:05.581Z,92.80
2018-01-06T23:02:33.986Z,92.80
2018-01-06T23:05:02.365Z,93.00
2018-01-06T23:07:30.866Z,93.40
2018-01-06T23:09:59.131Z,93.20
2018-01-06T23:12:27.481Z,93.20
2018-01-06T23:14:55.823Z,93.10
2018-01-06T23:17:24.248Z,93.00
2018-01-06T23:19:52.615Z,93.00
2018-01-06T23:22:21.960Z,93.10
2018-01-06T23:24:50.418Z,93.10
2018-01-06T23:27:18.712Z,93.00
2018-01-06T23:29:47.125Z,92.60
2018-01-06T23:32:15.618Z,92.80
2018-01-06T23:34:43.839Z,92.70
2018-01-06T23:37:12.210Z,92.90
2018-01-06T23:39:40.467Z,93.00
2018-01-06T23:42:09.753Z,93.00
2018-01-06T23:44:37.999Z,92.90
2018-01-06T23:47:06.253Z,92.70
2018-01-06T23:49:34.508Z,92.70
2018-01-06T23:52:03.596Z,92.30
2018-01-06T23:54:32.628Z,92.30
2018-01-06T23:57:00.894Z,92.30
2018-01-06T23:59:29.237Z,92.20
